Klamath Falls Airport
KLMT : rendu visible

Aérodrome :











RETROUVEZ-NOUS SUR...

 
LOGIN :

S'inscrire | Disclaimer

   EN    FR    IT 

 









Légende :    VFR   VFR Marginal   IFR   IFR Intensif   IFR Très Intensif
Visi : 
Plafond : 
>= 8 km
>= 3000ft
5 à 8 km
1000 à 3000 ft
1500m à 5 km
500 à 1000 ft
800 à 1500m
200 à 500 ft
< 800m
< 200 ft
Symboles :   Orages  Brouillard  Fortes neiges  Fortes précipitations  Vent > 20 kt






- Altitude de l'aérodrome : 4095 ft
- Code IATA : LMT


KLMT - Klamath Falls

DERNIER METAR :
  • 200353Z AUTO 34010KT 10SM BKN035 05/00 A2981 RMK AO2 SLP093 LAST T00500000

METARs EXPIRÉS :
  • 200253Z 35010KT 10SM CLR 04/01 A2980 RMK AO2 RAE15 SLP097 P0000 60001 T00440006 51010
  • 200153Z 34013KT 10SM -RA OVC034 06/01 A2979 RMK AO2 RAB16 SLP088 P0001 T00560011

TAF KLMT
Valide du 20 à 00h jusqu'au 21 à 00h UTC


192338Z 2000/2024 31011KT P6SM -SHRA BKN025 OVC040
FM200600 34011KT P6SM BKN050
FM201100 35016KT P6SM OVC050
FM201500 36016G24KT P6SM BKN050
FM201700 36020G33KT P6SM FEW060



MET'MAP, la Météo Aéronautique d'un coup d'oeil ! - Copyright ORBIFLY Décembre 2007 - Disclaimer

ORBIFLY MET'MAP TEAM :

Programmation & Développement : Alexandra Zaïnal
Conception & Développement : Baudouin d'Aumeries
Co-Programmation & Développement : Marc-Olivier Méhu
Soutien technique & logistique : Manuel Goepfert

Contact : metmap@orbifly.com




SOURCES & CREDITS :

   NOAA       Earth
Advisory